createdAt,value
2016-08-24T00:00:16.612Z,99.91
2016-08-24T00:01:15.911Z,99.91
2016-08-24T00:02:15.943Z,99.99
2016-08-24T00:03:16.667Z,99.99
2016-08-24T00:04:15.984Z,99.99
2016-08-24T00:05:16.732Z,99.99
2016-08-24T00:06:16.733Z,99.68
2016-08-24T00:07:16.764Z,99.73
2016-08-24T00:08:16.783Z,99.63
2016-08-24T00:09:16.155Z,99.44
2016-08-24T00:10:16.833Z,99.99
2016-08-24T00:11:16.250Z,99.99
2016-08-24T00:12:16.886Z,99.99
2016-08-24T00:13:16.934Z,99.99
2016-08-24T00:14:16.216Z,99.99
2016-08-24T00:15:16.239Z,99.99
2016-08-24T00:16:16.969Z,99.53
2016-08-24T00:17:16.991Z,99.99
2016-08-24T00:18:16.326Z,99.99
2016-08-24T00:19:16.334Z,99.99
2016-08-24T00:20:16.364Z,99.99
2016-08-24T00:21:16.385Z,99.99
2016-08-24T00:22:17.102Z,99.99
2016-08-24T00:23:16.431Z,99.99
2016-08-24T00:24:16.501Z,99.82
2016-08-24T00:25:17.188Z,99.82
2016-08-24T00:26:16.563Z,99.82
2016-08-24T00:27:17.227Z,99.58
2016-08-24T00:28:16.557Z,99.39
2016-08-24T00:29:17.268Z,99.58
2016-08-24T00:30:17.295Z,99.87
2016-08-24T00:31:16.624Z,99.58
2016-08-24T00:32:16.655Z,99.58
2016-08-24T00:33:17.371Z,99.68
2016-08-24T00:34:16.697Z,99.99
2016-08-24T00:35:16.703Z,99.39
2016-08-24T00:36:17.433Z,99.96
2016-08-24T00:37:17.568Z,99.68
2016-08-24T00:38:16.790Z,99.68
2016-08-24T00:39:16.801Z,99.91
2016-08-24T00:40:17.535Z,99.99
2016-08-24T00:41:17.552Z,99.48
2016-08-24T00:42:16.882Z,99.96
2016-08-24T00:43:16.983Z,99.87
2016-08-24T00:44:17.634Z,99.77
2016-08-24T00:45:17.650Z,99.48
2016-08-24T00:46:16.964Z,99.39
2016-08-24T00:47:17.693Z,99.58
2016-08-24T00:48:17.726Z,99.39
2016-08-24T00:49:17.748Z,99.58
2016-08-24T00:50:17.066Z,99.87
2016-08-24T00:51:17.075Z,99.99
2016-08-24T00:52:17.099Z,99.96
2016-08-24T00:53:17.841Z,99.96
2016-08-24T00:54:17.145Z,99.87
2016-08-24T00:55:17.903Z,99.87
2016-08-24T00:56:17.911Z,99.77
2016-08-24T00:57:17.933Z,99.87
2016-08-24T00:58:17.948Z,99.39
2016-08-24T00:59:17.979Z,99.58
2016-08-24T01:00:17.293Z,99.87
2016-08-24T01:01:17.321Z,99.87
2016-08-24T01:02:17.344Z,99.87
2016-08-24T01:03:18.144Z,99.87
2016-08-24T01:04:17.385Z,99.87
2016-08-24T01:05:18.133Z,99.58
2016-08-24T01:06:17.473Z,99.58
2016-08-24T01:07:18.159Z,99.87
2016-08-24T01:08:18.380Z,99.77
2016-08-24T01:09:18.202Z,99.77
2016-08-24T01:10:18.280Z,99.77
2016-08-24T01:11:18.254Z,99.99
2016-08-24T01:12:17.576Z,99.87
2016-08-24T01:13:18.305Z,99.99
2016-08-24T01:14:18.325Z,99.01
2016-08-24T01:15:18.343Z,99.87
2016-08-24T01:16:18.372Z,99.96
2016-08-24T01:17:17.784Z,99.68
2016-08-24T01:18:18.425Z,99.87
2016-08-24T01:19:18.551Z,99.58
2016-08-24T01:20:17.752Z,99.77
2016-08-24T01:21:18.492Z,99.96
2016-08-24T01:22:18.502Z,99.58
2016-08-24T01:23:18.526Z,99.68
2016-08-24T01:24:17.854Z,99.77
2016-08-24T01:25:17.875Z,99.68
2016-08-24T01:26:18.595Z,99.68
2016-08-24T01:27:18.624Z,99.53
2016-08-24T01:28:17.989Z,99.77
2016-08-24T01:29:17.955Z,99.87
2016-08-24T01:30:18.815Z,99.39
2016-08-24T01:31:18.014Z,99.96
2016-08-24T01:32:18.034Z,99.39
2016-08-24T01:33:18.764Z,99.01
2016-08-24T01:34:18.882Z,99.19
2016-08-24T01:35:18.105Z,99.19
2016-08-24T01:36:18.832Z,99.96
2016-08-24T01:37:18.155Z,99.58
2016-08-24T01:38:18.173Z,99.01
2016-08-24T01:39:18.189Z,98.96
2016-08-24T01:40:18.925Z,99.39
2016-08-24T01:41:18.953Z,99.34
2016-08-24T01:42:18.265Z,99.29
2016-08-24T01:43:18.438Z,99.24
2016-08-24T01:44:19.003Z,99.1
2016-08-24T01:45:19.075Z,99.63
2016-08-24T01:46:19.050Z,99.15
2016-08-24T01:47:19.184Z,99.53
2016-08-24T01:48:18.485Z,99.39
2016-08-24T01:49:19.133Z,99.43
2016-08-24T01:50:19.142Z,99.53
2016-08-24T01:51:18.468Z,99.34
2016-08-24T01:52:18.493Z,99.24
2016-08-24T01:53:19.213Z,99.34
2016-08-24T01:54:19.240Z,99.34
2016-08-24T01:55:18.555Z,99.53
2016-08-24T01:56:18.581Z,99.63
2016-08-24T01:57:18.603Z,99.43
2016-08-24T01:58:19.335Z,99.53
2016-08-24T01:59:19.358Z,99.63
2016-08-24T02:00:18.690Z,99.43
2016-08-24T02:01:18.707Z,99.53
2016-08-24T02:02:18.802Z,99.53
2016-08-24T02:03:18.734Z,99.53
2016-08-24T02:04:18.773Z,99.43
2016-08-24T02:05:18.785Z,99.53
2016-08-24T02:06:18.806Z,99.72
2016-08-24T02:07:19.545Z,99.53
2016-08-24T02:08:19.576Z,99.43
2016-08-24T02:09:19.594Z,99.24
2016-08-24T02:10:18.900Z,98.76
2016-08-24T02:11:18.925Z,98.96
2016-08-24T02:12:18.955Z,98.76
2016-08-24T02:13:18.973Z,99.15
2016-08-24T02:14:18.988Z,99.15
2016-08-24T02:15:19.734Z,99.05
2016-08-24T02:16:19.744Z,98.96
2016-08-24T02:17:19.774Z,98.96
2016-08-24T02:18:19.792Z,98.67
2016-08-24T02:19:19.115Z,99.15
2016-08-24T02:20:19.136Z,98.86
2016-08-24T02:21:19.168Z,98.76
2016-08-24T02:22:19.184Z,98.76
2016-08-24T02:23:19.915Z,98.86
2016-08-24T02:24:19.221Z,98.76
2016-08-24T02:25:19.247Z,98.86
2016-08-24T02:26:20.025Z,98.67
2016-08-24T02:27:19.301Z,99.15
2016-08-24T02:28:19.314Z,98.76
2016-08-24T02:29:20.044Z,98.76
2016-08-24T02:30:20.092Z,99.15
2016-08-24T02:31:19.379Z,98.86
2016-08-24T02:32:19.410Z,98.91
2016-08-24T02:33:19.424Z,98.86
2016-08-24T02:34:20.150Z,98.67
2016-08-24T02:35:19.558Z,98.67
2016-08-24T02:36:19.506Z,98.86
2016-08-24T02:37:19.517Z,98.76
2016-08-24T02:38:20.241Z,98.76
2016-08-24T02:39:19.563Z,98.96
2016-08-24T02:40:19.730Z,98.57
2016-08-24T02:41:19.698Z,98.62
2016-08-24T02:42:19.696Z,98.76
2016-08-24T02:43:19.656Z,98.86
2016-08-24T02:44:19.683Z,98.57
2016-08-24T02:45:20.415Z,98.86
2016-08-24T02:46:20.433Z,98.86
2016-08-24T02:47:19.750Z,98.86
2016-08-24T02:48:20.484Z,98.86
2016-08-24T02:49:19.800Z,98.96
2016-08-24T02:50:19.824Z,98.96
2016-08-24T02:51:19.854Z,99.05
2016-08-24T02:52:19.864Z,98.76
2016-08-24T02:53:19.992Z,98.76
2016-08-24T02:54:20.621Z,98.62
2016-08-24T02:55:20.644Z,98.62
2016-08-24T02:56:20.675Z,98.62
2016-08-24T02:57:19.984Z,98.71
2016-08-24T02:58:20.704Z,98.91
2016-08-24T02:59:20.725Z,98.96
2016-08-24T03:00:20.055Z,98.91
2016-08-24T03:01:20.773Z,98.47
2016-08-24T03:02:20.804Z,98.52
2016-08-24T03:03:20.126Z,98.43
2016-08-24T03:04:20.155Z,98.47
2016-08-24T03:05:20.154Z,98.91
2016-08-24T03:06:20.195Z,98.52
2016-08-24T03:07:20.203Z,98.81
2016-08-24T03:08:20.242Z,98.81
2016-08-24T03:09:20.953Z,98.67
2016-08-24T03:10:20.994Z,99
2016-08-24T03:11:20.993Z,98.91
2016-08-24T03:12:20.318Z,98.96
2016-08-24T03:13:20.345Z,98.91
2016-08-24T03:14:21.077Z,98.71
2016-08-24T03:15:20.395Z,98.71
2016-08-24T03:16:20.405Z,98.81
2016-08-24T03:17:21.202Z,99.1
2016-08-24T03:18:21.153Z,98.52
2016-08-24T03:19:21.227Z,99
2016-08-24T03:20:20.497Z,98.81
2016-08-24T03:21:21.233Z,98.91
2016-08-24T03:22:21.243Z,99.05
2016-08-24T03:23:20.568Z,98.86
2016-08-24T03:24:21.303Z,98.38
2016-08-24T03:25:20.606Z,98.81
2016-08-24T03:26:20.641Z,98.81
2016-08-24T03:27:20.662Z,98.71
2016-08-24T03:28:21.382Z,98.62
2016-08-24T03:29:21.409Z,98.71
2016-08-24T03:30:20.726Z,98.62
2016-08-24T03:31:21.462Z,99
2016-08-24T03:32:20.765Z,98.81
2016-08-24T03:33:21.491Z,98.52
2016-08-24T03:34:21.517Z,98.91
2016-08-24T03:35:21.541Z,98.81
2016-08-24T03:36:20.854Z,98.62
2016-08-24T03:37:20.887Z,98.52
2016-08-24T03:38:20.913Z,98.62
2016-08-24T03:39:21.632Z,99.1
2016-08-24T03:40:21.666Z,98.91
2016-08-24T03:41:21.694Z,99
2016-08-24T03:42:21.002Z,98.43
2016-08-24T03:43:21.023Z,98.62
2016-08-24T03:44:21.044Z,98.33
2016-08-24T03:45:21.065Z,98.33
2016-08-24T03:46:21.791Z,98.62
2016-08-24T03:47:21.106Z,98.24
2016-08-24T03:48:21.840Z,98.33
2016-08-24T03:49:21.875Z,98.33
2016-08-24T03:50:21.879Z,98.33
2016-08-24T03:51:21.907Z,98.14
2016-08-24T03:52:21.931Z,98.33
2016-08-24T03:53:21.242Z,98.14
2016-08-24T03:54:21.268Z,98.33
2016-08-24T03:55:22.003Z,98.14
2016-08-24T03:56:22.020Z,98.14
2016-08-24T03:57:21.343Z,98.33
2016-08-24T03:58:22.062Z,98.14
2016-08-24T03:59:22.087Z,98.33
2016-08-24T04:00:21.401Z,98.24
2016-08-24T04:01:22.128Z,98.24
2016-08-24T04:02:22.162Z,98.24
2016-08-24T04:03:22.202Z,98.43
2016-08-24T04:04:22.204Z,98.14
2016-08-24T04:05:22.226Z,98.14
2016-08-24T04:06:22.240Z,98.43
2016-08-24T04:07:22.275Z,98.52
2016-08-24T04:08:22.293Z,98.43
2016-08-24T04:09:22.318Z,98.52
2016-08-24T04:10:22.349Z,98.52
2016-08-24T04:11:22.362Z,98.52
2016-08-24T04:12:22.397Z,98.52
2016-08-24T04:13:21.707Z,98.81
2016-08-24T04:14:22.549Z,98.33
2016-08-24T04:15:22.645Z,98.52
2016-08-24T04:16:22.535Z,98.33
2016-08-24T04:17:22.513Z,98.52
2016-08-24T04:18:22.521Z,98.52
2016-08-24T04:19:22.542Z,98.43
2016-08-24T04:20:21.852Z,98.52
2016-08-24T04:21:21.883Z,98.52
2016-08-24T04:22:21.904Z,98.62
2016-08-24T04:23:22.634Z,98.52
2016-08-24T04:24:21.952Z,98.62
2016-08-24T04:25:22.676Z,98.62
2016-08-24T04:26:21.994Z,98.52
2016-08-24T04:27:22.018Z,98.33
2016-08-24T04:28:22.032Z,98.52
2016-08-24T04:29:22.124Z,98.52
2016-08-24T04:30:22.937Z,98.52
2016-08-24T04:31:22.090Z,98.71
2016-08-24T04:32:22.202Z,98.24
2016-08-24T04:33:22.141Z,97.85
2016-08-24T04:34:22.189Z,98.05
2016-08-24T04:35:22.911Z,98.14
2016-08-24T04:36:22.947Z,97.85
2016-08-24T04:37:22.941Z,98.43
2016-08-24T04:38:22.354Z,97.75
2016-08-24T04:39:22.284Z,97.95
2016-08-24T04:40:23.173Z,97.75
2016-08-24T04:41:23.039Z,97.95
2016-08-24T04:42:23.052Z,97.85
2016-08-24T04:43:23.073Z,97.75
2016-08-24T04:44:22.394Z,98.05
2016-08-24T04:45:22.424Z,97.85
2016-08-24T04:46:23.152Z,98.05
2016-08-24T04:47:23.162Z,97.85
2016-08-24T04:48:22.494Z,98.43
2016-08-24T04:49:23.214Z,98.33
2016-08-24T04:50:23.231Z,98.24
2016-08-24T04:51:22.556Z,98.05
2016-08-24T04:52:22.574Z,98.05
2016-08-24T04:53:23.323Z,98.05
2016-08-24T04:54:23.332Z,97.95
2016-08-24T04:55:23.351Z,97.85
2016-08-24T04:56:22.663Z,97.85
2016-08-24T04:57:23.391Z,97.52
2016-08-24T04:58:22.713Z,97.95
2016-08-24T04:59:22.734Z,97.75
2016-08-24T05:00:22.758Z,97.9
2016-08-24T05:01:23.501Z,97.71
2016-08-24T05:02:23.512Z,98
2016-08-24T05:03:22.821Z,98
2016-08-24T05:04:22.853Z,98
2016-08-24T05:05:23.572Z,97.61
2016-08-24T05:06:22.889Z,97.71
2016-08-24T05:07:23.624Z,98
2016-08-24T05:08:22.933Z,98.1
2016-08-24T05:09:23.662Z,98
2016-08-24T05:10:23.703Z,97.52
2016-08-24T05:11:23.721Z,97.9
2016-08-24T05:12:23.732Z,98
2016-08-24T05:13:23.154Z,97.71
2016-08-24T05:14:23.178Z,97.9
2016-08-24T05:15:23.808Z,97.52
2016-08-24T05:16:23.827Z,97.9
2016-08-24T05:17:23.253Z,97.52
2016-08-24T05:18:23.161Z,97.71
2016-08-24T05:19:23.894Z,97.76
2016-08-24T05:20:23.921Z,97.76
2016-08-24T05:21:23.244Z,98.05
2016-08-24T05:22:23.261Z,98.05
2016-08-24T05:23:23.292Z,97.95
2016-08-24T05:24:24.011Z,97.76
2016-08-24T05:25:24.042Z,97.56
2016-08-24T05:26:23.352Z,97.95
2016-08-24T05:27:23.383Z,97.76
2016-08-24T05:28:23.402Z,98.33
2016-08-24T05:29:24.122Z,98.05
2016-08-24T05:30:23.437Z,97.66
2016-08-24T05:31:23.483Z,97.95
2016-08-24T05:32:23.493Z,97.76
2016-08-24T05:33:24.234Z,97.95
2016-08-24T05:34:23.532Z,98.38
2016-08-24T05:35:23.562Z,98.1
2016-08-24T05:36:24.286Z,98.24
2016-08-24T05:37:23.612Z,97.91
2016-08-24T05:38:24.332Z,97.76
2016-08-24T05:39:23.646Z,99.98
2016-08-24T05:40:24.383Z,99.99
2016-08-24T05:41:23.696Z,99.99
2016-08-24T05:42:24.436Z,99.45
2016-08-24T05:43:24.482Z,96.61
2016-08-24T05:44:23.789Z,96.31
2016-08-24T05:45:24.514Z,94.04
2016-08-24T05:46:24.597Z,93.9
2016-08-24T05:47:24.551Z,92.2
2016-08-24T05:48:24.673Z,90.21
2016-08-24T05:49:23.897Z,90.06
2016-08-24T05:50:23.952Z,89.92
2016-08-24T05:51:24.664Z,88.41
2016-08-24T05:52:24.682Z,83.6
2016-08-24T05:53:23.997Z,84.03
2016-08-24T05:54:24.030Z,81.26
2016-08-24T05:55:24.154Z,79.51
2016-08-24T05:56:24.790Z,79.32
2016-08-24T05:57:24.132Z,80.09
2016-08-24T05:58:24.847Z,76.64
2016-08-24T05:59:25.030Z,75.18
2016-08-24T06:00:24.908Z,73.85
2016-08-24T06:01:24.274Z,73.85
2016-08-24T06:02:24.965Z,70.49
2016-08-24T06:03:24.983Z,66.47
2016-08-24T06:04:24.310Z,63.48
2016-08-24T06:05:25.047Z,63.58
2016-08-24T06:06:24.471Z,62.93
2016-08-24T06:07:24.392Z,62.99
2016-08-24T06:08:25.274Z,62.15
2016-08-24T06:09:25.174Z,61.3
2016-08-24T06:10:24.571Z,60.82
2016-08-24T06:11:24.505Z,59.74
2016-08-24T06:12:25.263Z,59.09
2016-08-24T06:13:24.565Z,57.75
2016-08-24T06:14:25.311Z,57.29
2016-08-24T06:15:25.338Z,57.59
2016-08-24T06:16:24.662Z,57
2016-08-24T06:17:24.687Z,57.1
2016-08-24T06:18:25.433Z,57.1
2016-08-24T06:19:25.469Z,56.71
2016-08-24T06:20:24.783Z,56.05
2016-08-24T06:21:24.805Z,55.2
2016-08-24T06:22:24.840Z,54.25
2016-08-24T06:23:25.581Z,53.78
2016-08-24T06:24:25.601Z,53.33
2016-08-24T06:25:24.931Z,52.47
2016-08-24T06:26:25.013Z,51.22
2016-08-24T06:27:25.691Z,50.93
2016-08-24T06:28:25.732Z,50.15
2016-08-24T06:29:25.047Z,49.21
2016-08-24T06:30:25.782Z,49.7
2016-08-24T06:31:25.822Z,49.29
2016-08-24T06:32:25.873Z,49.58
2016-08-24T06:33:25.184Z,49.87
2016-08-24T06:34:25.199Z,50.34
2016-08-24T06:35:25.942Z,51.03
2016-08-24T06:36:25.973Z,50.07
2016-08-24T06:37:26.015Z,50.37
2016-08-24T06:38:26.042Z,51.03
2016-08-24T06:39:26.086Z,51.03
2016-08-24T06:40:26.099Z,51.49
2016-08-24T06:41:25.431Z,51.49
2016-08-24T06:42:26.167Z,50.93
2016-08-24T06:43:26.204Z,49.87
2016-08-24T06:44:26.225Z,49.21
2016-08-24T06:45:26.263Z,49.02
2016-08-24T06:46:25.602Z,48.85
2016-08-24T06:47:26.333Z,48.94
2016-08-24T06:48:25.652Z,49.21
2016-08-24T06:49:26.391Z,48.82
2016-08-24T06:50:26.641Z,48.35
2016-08-24T06:51:26.623Z,48.85
2016-08-24T06:52:26.641Z,49.04
2016-08-24T06:53:25.924Z,49.41
2016-08-24T06:54:26.611Z,48.55
2016-08-24T06:55:26.643Z,47.2
2016-08-24T06:56:26.623Z,46.36
2016-08-24T06:57:26.742Z,46.78
2016-08-24T06:58:25.981Z,46.68
2016-08-24T06:59:26.022Z,46.56
2016-08-24T07:00:26.057Z,46.46
2016-08-24T07:01:26.778Z,46.48
2016-08-24T07:02:26.116Z,45.3
2016-08-24T07:03:26.864Z,44.83
2016-08-24T07:04:26.885Z,44.56
2016-08-24T07:05:26.922Z,44.48
2016-08-24T07:06:26.303Z,44.66
2016-08-24T07:07:26.349Z,44.46
2016-08-24T07:08:27.065Z,44.38
2016-08-24T07:09:27.061Z,43.6
2016-08-24T07:10:27.081Z,44.38
2016-08-24T07:11:27.124Z,43.71
2016-08-24T07:12:27.152Z,43.44
2016-08-24T07:13:27.201Z,43.52
2016-08-24T07:14:27.211Z,41.99
2016-08-24T07:15:26.630Z,41.02
2016-08-24T07:16:27.275Z,40.35
2016-08-24T07:17:27.307Z,39.97
2016-08-24T07:18:26.656Z,40.55
2016-08-24T07:19:26.684Z,40.64
2016-08-24T07:20:27.419Z,40.35
2016-08-24T07:21:26.750Z,41.71
2016-08-24T07:22:27.487Z,40.7
2016-08-24T07:23:26.820Z,41.61
2016-08-24T07:24:27.551Z,39.84
2016-08-24T07:25:27.583Z,40.35
2016-08-24T07:26:27.673Z,39.48
2016-08-24T07:27:26.949Z,37.54
2016-08-24T07:28:27.744Z,38.23
2016-08-24T07:29:27.012Z,38.71
2016-08-24T07:30:27.767Z,39.48
2016-08-24T07:31:27.087Z,41.71
2016-08-24T07:32:27.138Z,43.01
2016-08-24T07:33:27.239Z,42.24
2016-08-24T07:34:27.204Z,40.98
2016-08-24T07:35:27.928Z,41.69
2016-08-24T07:36:27.974Z,42.36
2016-08-24T07:37:27.292Z,43.2
2016-08-24T07:38:28.033Z,42.89
2016-08-24T07:39:27.369Z,43.4
2016-08-24T07:40:27.403Z,42.91
2016-08-24T07:41:27.437Z,42.44
2016-08-24T07:42:28.173Z,40.9
2016-08-24T07:43:28.211Z,41.39
2016-08-24T07:44:28.255Z,39.92
2016-08-24T07:45:27.571Z,40.23
2016-08-24T07:46:27.603Z,39.73
2016-08-24T07:47:28.339Z,41.17
2016-08-24T07:48:27.754Z,42.04
2016-08-24T07:49:27.720Z,41.65
2016-08-24T07:50:27.742Z,41.67
2016-08-24T07:51:27.784Z,41.17
2016-08-24T07:52:27.815Z,42.34
2016-08-24T07:53:28.701Z,43.7
2016-08-24T07:54:27.882Z,44.54
2016-08-24T07:55:28.623Z,47.15
2016-08-24T07:56:28.653Z,50.22
2016-08-24T07:57:27.981Z,53.94
2016-08-24T07:58:28.718Z,57.06
2016-08-24T07:59:28.762Z,60.1
2016-08-24T08:00:28.911Z,62.76
2016-08-24T08:01:28.122Z,65.04
2016-08-24T08:02:28.861Z,66.14
2016-08-24T08:03:28.176Z,67.47
2016-08-24T08:04:28.970Z,69.48
2016-08-24T08:05:28.942Z,71.64
2016-08-24T08:06:28.283Z,73.36
2016-08-24T08:07:28.313Z,73.8
2016-08-24T08:08:29.057Z,73.9
2016-08-24T08:09:28.415Z,75.13
2016-08-24T08:10:29.102Z,75.81
2016-08-24T08:11:28.441Z,76.25
2016-08-24T08:12:29.163Z,76.54
2016-08-24T08:13:28.544Z,76.45
2016-08-24T08:14:28.517Z,77.61
2016-08-24T08:15:29.238Z,76.45
2016-08-24T08:16:29.282Z,76.45
2016-08-24T08:17:29.310Z,76.64
2016-08-24T08:18:29.344Z,77.12
2016-08-24T08:19:29.380Z,78.19
2016-08-24T08:20:29.394Z,78.74
2016-08-24T08:21:28.724Z,78.34
2016-08-24T08:22:29.464Z,78.64
2016-08-24T08:23:29.485Z,77.86
2016-08-24T08:24:29.513Z,77.28
2016-08-24T08:25:29.549Z,77.61
2016-08-24T08:26:29.571Z,78
2016-08-24T08:27:28.891Z,77.7
2016-08-24T08:28:28.923Z,78
2016-08-24T08:29:28.961Z,77.7
2016-08-24T08:30:29.681Z,77.22
2016-08-24T08:31:29.714Z,76.78
2016-08-24T08:32:29.035Z,76.29
2016-08-24T08:33:29.767Z,76.54
2016-08-24T08:34:29.094Z,77.12
2016-08-24T08:35:29.116Z,76.93
2016-08-24T08:36:29.152Z,76.68
2016-08-24T08:37:29.943Z,76.58
2016-08-24T08:38:29.215Z,76.87
2016-08-24T08:39:29.229Z,76.48
2016-08-24T08:40:29.981Z,75.9
2016-08-24T08:41:29.981Z,75.71
2016-08-24T08:42:30.012Z,76.48
2016-08-24T08:43:30.043Z,76.39
2016-08-24T08:44:29.371Z,76.48
2016-08-24T08:45:29.402Z,76.29
2016-08-24T08:46:29.423Z,76.87
2016-08-24T08:47:30.152Z,75.71
2016-08-24T08:48:30.186Z,74.93
2016-08-24T08:49:30.217Z,75.23
2016-08-24T08:50:29.534Z,75.61
2016-08-24T08:51:29.556Z,75.42
2016-08-24T08:52:29.582Z,74.87
2016-08-24T08:53:29.613Z,74.64
2016-08-24T08:54:30.352Z,74.74
2016-08-24T08:55:30.474Z,75.32
2016-08-24T08:56:29.692Z,75.71
2016-08-24T08:57:29.734Z,74.54
2016-08-24T08:58:30.464Z,75.32
2016-08-24T08:59:29.784Z,75.13
2016-08-24T09:00:30.519Z,75.81
2016-08-24T09:01:30.544Z,74.58
2016-08-24T09:02:29.872Z,74.87
2016-08-24T09:03:30.602Z,72.74
2016-08-24T09:04:30.724Z,73.13
2016-08-24T09:05:30.668Z,73.52
2016-08-24T09:06:30.710Z,72.64
2016-08-24T09:07:30.707Z,73.03
2016-08-24T09:08:30.740Z,73.32
2016-08-24T09:09:30.063Z,72.93
2016-08-24T09:10:30.103Z,72.64
2016-08-24T09:11:30.135Z,73.32
2016-08-24T09:12:30.853Z,73.61
2016-08-24T09:13:30.256Z,73.13
2016-08-24T09:14:30.201Z,72.74
2016-08-24T09:15:30.239Z,74
2016-08-24T09:16:30.956Z,73.71
2016-08-24T09:17:30.994Z,73.46
2016-08-24T09:18:30.304Z,72.87
2016-08-24T09:19:30.422Z,72.77
2016-08-24T09:20:30.365Z,72.39
2016-08-24T09:21:31.088Z,72.09
2016-08-24T09:22:31.135Z,72.77
2016-08-24T09:23:31.150Z,72.33
2016-08-24T09:24:30.494Z,70.87
2016-08-24T09:25:30.494Z,70.97
2016-08-24T09:26:30.587Z,71.7
2016-08-24T09:27:30.554Z,71.12
2016-08-24T09:28:30.603Z,70.35
2016-08-24T09:29:31.313Z,70.67
2016-08-24T09:30:31.374Z,70
2016-08-24T09:31:30.664Z,70.77
2016-08-24T09:32:31.414Z,70.67
2016-08-24T09:33:31.431Z,70.39
2016-08-24T09:34:31.453Z,70.19
2016-08-24T09:35:31.493Z,69.9
2016-08-24T09:36:31.504Z,70.39
2016-08-24T09:37:30.833Z,69.9
2016-08-24T09:38:30.858Z,71.74
2016-08-24T09:39:31.592Z,69.6
2016-08-24T09:40:30.923Z,70.77
2016-08-24T09:41:31.651Z,70.57
2016-08-24T09:42:31.674Z,69.8
2016-08-24T09:43:31.006Z,69.22
2016-08-24T09:44:31.753Z,70.09
2016-08-24T09:45:31.054Z,70.19
2016-08-24T09:46:31.840Z,70.77
2016-08-24T09:47:31.814Z,70.97
2016-08-24T09:48:31.854Z,71.78
2016-08-24T09:49:31.880Z,71.58
2016-08-24T09:50:31.901Z,69.93
2016-08-24T09:51:31.224Z,68.28
2016-08-24T09:52:31.253Z,68.96
2016-08-24T09:53:31.989Z,68.96
2016-08-24T09:54:32.020Z,68.51
2016-08-24T09:55:32.030Z,68.6
2016-08-24T09:56:32.067Z,67.54
2016-08-24T09:57:31.386Z,68.12
2016-08-24T09:58:32.144Z,66.76
2016-08-24T09:59:31.442Z,67.15
2016-08-24T10:00:32.179Z,66.86
2016-08-24T10:01:32.239Z,66.96
2016-08-24T10:02:32.239Z,65.59
2016-08-24T10:03:32.260Z,66.08
2016-08-24T10:04:32.295Z,66.08
2016-08-24T10:05:32.313Z,66.17
2016-08-24T10:06:32.345Z,67.34
2016-08-24T10:07:31.675Z,66.86
2016-08-24T10:08:32.407Z,66.96
2016-08-24T10:09:31.733Z,66.17
2016-08-24T10:10:32.464Z,66.86
2016-08-24T10:11:32.483Z,66.37
2016-08-24T10:12:32.520Z,66.47
2016-08-24T10:13:32.555Z,66.96
2016-08-24T10:14:32.571Z,67.24
2016-08-24T10:15:32.662Z,65.3
2016-08-24T10:16:31.912Z,65.33
2016-08-24T10:17:32.040Z,64.53
2016-08-24T10:18:31.983Z,64.62
2016-08-24T10:19:32.704Z,64.14
2016-08-24T10:20:32.033Z,65.01
2016-08-24T10:21:32.784Z,65.2
2016-08-24T10:22:32.793Z,65.63
2016-08-24T10:23:32.122Z,64.23
2016-08-24T10:24:32.200Z,64.91
2016-08-24T10:25:32.886Z,63.97
2016-08-24T10:26:32.978Z,64.07
2016-08-24T10:27:32.234Z,63.97
2016-08-24T10:28:32.360Z,63.97
2016-08-24T10:29:32.291Z,62.81
2016-08-24T10:30:32.322Z,64.26
2016-08-24T10:31:33.050Z,63.87
2016-08-24T10:32:32.373Z,64.85
2016-08-24T10:33:33.103Z,65.63
2016-08-24T10:34:33.134Z,65.63
2016-08-24T10:35:32.572Z,63.97
2016-08-24T10:36:32.493Z,63.59
2016-08-24T10:37:32.511Z,64.17
2016-08-24T10:38:33.275Z,65.08
2016-08-24T10:39:32.572Z,63.32
2016-08-24T10:40:32.594Z,64.1
2016-08-24T10:41:32.633Z,62.54
2016-08-24T10:42:32.653Z,60.7
2016-08-24T10:43:33.384Z,62.16
2016-08-24T10:44:33.411Z,60.99
2016-08-24T10:45:33.464Z,61.28
2016-08-24T10:46:33.478Z,61.57
2016-08-24T10:47:33.507Z,61.77
2016-08-24T10:48:32.825Z,61.28
2016-08-24T10:49:32.860Z,62.84
2016-08-24T10:50:33.590Z,63.16
2016-08-24T10:51:32.909Z,62.38
2016-08-24T10:52:33.650Z,63.06
2016-08-24T10:53:32.963Z,63.16
2016-08-24T10:54:33.704Z,63.26
2016-08-24T10:55:33.032Z,63.06
2016-08-24T10:56:33.765Z,63.16
2016-08-24T10:57:33.783Z,62.96
2016-08-24T10:58:33.110Z,63.35
2016-08-24T10:59:33.847Z,63.16
2016-08-24T11:00:33.880Z,61.99
2016-08-24T11:01:33.912Z,61.6
2016-08-24T11:02:33.940Z,62.57
2016-08-24T11:03:33.245Z,62.38
2016-08-24T11:04:33.994Z,62.48
2016-08-24T11:05:34.013Z,62.57
2016-08-24T11:06:33.414Z,62.57
2016-08-24T11:07:33.373Z,61.31
2016-08-24T11:08:34.107Z,61.7
2016-08-24T11:09:33.413Z,60.46
2016-08-24T11:10:33.453Z,59.3
2016-08-24T11:11:34.185Z,58.42
2016-08-24T11:12:34.223Z,59.39
2016-08-24T11:13:34.267Z,59.78
2016-08-24T11:14:33.563Z,59.1
2016-08-24T11:15:33.677Z,58.81
2016-08-24T11:16:34.345Z,59.3
2016-08-24T11:17:33.649Z,59.78
2016-08-24T11:18:34.370Z,59.69
2016-08-24T11:19:33.714Z,60.27
2016-08-24T11:20:33.743Z,59.3
2016-08-24T11:21:33.774Z,59.42
2016-08-24T11:22:33.796Z,59.13
2016-08-24T11:23:34.569Z,59.42
2016-08-24T11:24:34.578Z,58.45
2016-08-24T11:25:33.884Z,58.35
2016-08-24T11:26:34.681Z,59.62
2016-08-24T11:27:33.934Z,58.74
2016-08-24T11:28:34.745Z,58.94
2016-08-24T11:29:34.705Z,57.96
2016-08-24T11:30:34.735Z,58.45
2016-08-24T11:31:34.757Z,59.33
2016-08-24T11:32:34.791Z,59.91
2016-08-24T11:33:34.108Z,58.15
2016-08-24T11:34:34.853Z,58.38
2016-08-24T11:35:34.222Z,57.99
2016-08-24T11:36:34.204Z,57.89
2016-08-24T11:37:34.945Z,57.4
2016-08-24T11:38:34.253Z,58.06
2016-08-24T11:39:35.098Z,57.7
2016-08-24T11:40:34.314Z,57.86
2016-08-24T11:41:35.105Z,58.15
2016-08-24T11:42:34.373Z,58.35
2016-08-24T11:43:34.398Z,57.96
2016-08-24T11:44:35.136Z,57.21
2016-08-24T11:45:34.459Z,57.7
2016-08-24T11:46:35.201Z,57.01
2016-08-24T11:47:34.513Z,57.99
2016-08-24T11:48:34.552Z,57.01
2016-08-24T11:49:34.585Z,56.82
2016-08-24T11:50:34.616Z,57.01
2016-08-24T11:51:34.630Z,56.52
2016-08-24T11:52:34.745Z,55.65
2016-08-24T11:53:35.495Z,54.77
2016-08-24T11:54:35.537Z,55.58
2016-08-24T11:55:34.771Z,55.68
2016-08-24T11:56:35.545Z,55.36
2016-08-24T11:57:34.823Z,54.9
2016-08-24T11:58:34.843Z,56.56
2016-08-24T11:59:35.574Z,56.56
2016-08-24T12:00:34.903Z,56.75
2016-08-24T12:01:35.630Z,55.29
2016-08-24T12:02:34.960Z,55.68
2016-08-24T12:03:35.704Z,54.5
2016-08-24T12:04:35.013Z,54.99
2016-08-24T12:05:35.764Z,54.9
2016-08-24T12:06:35.776Z,55.68
2016-08-24T12:07:35.116Z,56.07
2016-08-24T12:08:35.125Z,56.36
2016-08-24T12:09:35.161Z,54.9
2016-08-24T12:10:35.274Z,55.48
2016-08-24T12:11:35.926Z,54.31
2016-08-24T12:12:35.954Z,54.9
2016-08-24T12:13:35.283Z,55.87
2016-08-24T12:14:36.013Z,56.46
2016-08-24T12:15:36.045Z,55.77
2016-08-24T12:16:35.376Z,54.21
2016-08-24T12:17:36.105Z,55.29
2016-08-24T12:18:35.426Z,55.19
2016-08-24T12:19:35.453Z,53.34
2016-08-24T12:20:36.207Z,53.73
2016-08-24T12:21:36.276Z,52.17
2016-08-24T12:22:35.690Z,51.48
2016-08-24T12:23:35.682Z,51.68
2016-08-24T12:24:36.317Z,51.29
2016-08-24T12:25:35.691Z,51.9
2016-08-24T12:26:35.763Z,52.29
2016-08-24T12:27:36.409Z,52.29
2016-08-24T12:28:36.601Z,52.56
2016-08-24T12:29:35.761Z,52.48
2016-08-24T12:30:36.492Z,52.95
2016-08-24T12:31:36.049Z,52.87
2016-08-24T12:32:35.845Z,54.44
2016-08-24T12:33:36.581Z,53.27
2016-08-24T12:34:35.893Z,52.58
2016-08-24T12:35:35.987Z,51.51
2016-08-24T12:36:36.665Z,51.7
2016-08-24T12:37:36.089Z,51.7
2016-08-24T12:38:36.010Z,51.02
2016-08-24T12:39:36.761Z,51.02
2016-08-24T12:40:36.083Z,51.9
2016-08-24T12:41:36.813Z,51.31
2016-08-24T12:42:36.851Z,52.19
2016-08-24T12:43:36.873Z,51.02
2016-08-24T12:44:36.893Z,51.61
2016-08-24T12:45:36.938Z,52.19
2016-08-24T12:46:36.963Z,51.21
2016-08-24T12:47:36.995Z,51.21
2016-08-24T12:48:37.100Z,50.92
2016-08-24T12:49:37.054Z,50.53
2016-08-24T12:50:36.382Z,50.63
2016-08-24T12:51:36.418Z,51.02
2016-08-24T12:52:37.134Z,52
2016-08-24T12:53:37.167Z,50.14
2016-08-24T12:54:36.498Z,50.63
2016-08-24T12:55:36.561Z,48.68
2016-08-24T12:56:37.252Z,49.17